Time;durP1;ratioP1;P1;durP2;ratioP2;P2;SDS_P1;SDS_P2;PMS_P1;PMS_P2;Temp;Humidity;BMP_temperature;BMP_pressure;BME280_temperature;BME280_humidity;BME280_pressure;Samples;Min_cycle;Max_cycle;Signal;HPM_P1;HPM_P2
2023/01/29 00:01:05;;;;;;;22.75;9.82;;;5.00;99.90;;;;;;5028696;28;20040;-44
2023/01/29 00:03:32;;;;;;;18.08;9.57;;;5.00;99.90;;;;;;5025561;28;20080;-41
2023/01/29 00:05:58;;;;;;;23.60;10.30;;;5.00;99.90;;;;;;5023998;28;20498;-42
2023/01/29 00:08:23;;;;;;;21.77;9.95;;;5.00;99.90;;;;;;5021826;28;20034;-42
2023/01/29 00:10:49;;;;;;;20.75;9.93;;;5.00;99.90;;;;;;5021857;28;20029;-43
2023/01/29 00:13:14;;;;;;;17.75;10.30;;;5.00;99.90;;;;;;5013614;28;20029;-42
2023/01/29 00:15:40;;;;;;;19.88;9.98;;;4.90;99.90;;;;;;5015984;28;20022;-40
2023/01/29 00:18:06;;;;;;;23.42;9.57;;;4.90;99.90;;;;;;5023690;28;20026;-39
2023/01/29 00:20:32;;;;;;;21.45;9.73;;;4.90;99.90;;;;;;5024831;28;20025;-40
2023/01/29 00:22:58;;;;;;;18.20;9.38;;;4.90;99.90;;;;;;5029066;28;20072;-41
2023/01/29 00:25:24;;;;;;;21.55;9.35;;;5.00;99.90;;;;;;5023223;28;20464;-38
2023/01/29 00:27:50;;;;;;;21.67;10.35;;;4.90;99.90;;;;;;5021594;28;20367;-42
2023/01/29 00:30:18;;;;;;;20.00;9.55;;;4.90;99.90;;;;;;5022902;28;20493;-44
2023/01/29 00:32:44;;;;;;;17.55;9.35;;;4.90;99.90;;;;;;5025528;28;20057;-46
2023/01/29 00:35:11;;;;;;;22.70;10.00;;;4.90;99.90;;;;;;5015791;28;20068;-45
2023/01/29 00:37:37;;;;;;;24.13;10.50;;;4.90;99.90;;;;;;5015152;28;20041;-46
2023/01/29 00:40:03;;;;;;;22.50;9.93;;;4.90;99.90;;;;;;5026264;28;20087;-51
2023/01/29 00:45:14;;;;;;;22.35;9.57;;;4.80;99.90;;;;;;5027302;28;20080;-46
2023/01/29 00:47:39;;;;;;;19.38;8.85;;;4.80;99.90;;;;;;5013152;28;20022;-48
2023/01/29 00:50:10;;;;;;;19.88;9.80;;;4.80;99.90;;;;;;5019346;28;20022;-43
2023/01/29 00:52:36;;;;;;;18.98;9.85;;;4.70;99.90;;;;;;5019680;28;20091;-42
2023/01/29 00:55:04;;;;;;;16.90;9.63;;;4.70;99.90;;;;;;5012981;28;20033;-40
2023/01/29 00:57:31;;;;;;;19.98;9.98;;;4.80;99.90;;;;;;5013021;28;20022;-42
2023/01/29 00:59:57;;;;;;;19.63;9.80;;;4.80;99.90;;;;;;5012486;28;20050;-36
2023/01/29 01:05:12;;;;;;;21.35;8.50;;;4.80;99.90;;;;;;5032630;28;20032;-44
2023/01/29 01:07:40;;;;;;;19.73;9.02;;;4.80;99.90;;;;;;5032526;28;20357;-41
2023/01/29 01:10:21;;;;;;;17.70;9.05;;;4.80;99.90;;;;;;5032656;28;20460;-45
2023/01/29 01:13:01;;;;;;;18.58;8.70;;;4.80;99.90;;;;;;5031451;28;20540;-41
2023/01/29 01:15:35;;;;;;;19.50;8.75;;;4.80;99.90;;;;;;5030755;28;20029;-42
2023/01/29 01:18:02;;;;;;;21.50;9.35;;;4.80;99.90;;;;;;5032589;28;20521;-38
2023/01/29 01:20:30;;;;;;;20.92;9.25;;;4.90;99.90;;;;;;5020519;28;20026;-40
2023/01/29 01:22:56;;;;;;;17.50;8.80;;;4.90;99.90;;;;;;5012990;28;20026;-35
2023/01/29 01:25:24;;;;;;;17.42;9.23;;;4.90;99.90;;;;;;5021817;28;20517;-38
2023/01/29 01:27:54;;;;;;;20.77;7.70;;;4.90;99.90;;;;;;5032441;28;20021;-39
2023/01/29 01:30:20;;;;;;;16.95;8.27;;;4.90;99.90;;;;;;5022689;28;20030;-36
2023/01/29 01:32:45;;;;;;;19.23;8.20;;;4.90;99.90;;;;;;5025931;28;20030;-39
2023/01/29 01:35:13;;;;;;;16.55;8.75;;;5.00;99.90;;;;;;5015999;28;20534;-39
2023/01/29 01:37:39;;;;;;;19.88;8.55;;;5.00;99.90;;;;;;5030143;28;20422;-37
2023/01/29 01:40:16;;;;;;;18.00;7.90;;;5.00;99.90;;;;;;5016270;28;20029;-37
2023/01/29 01:42:43;;;;;;;16.13;8.40;;;5.10;99.90;;;;;;5020270;28;20017;-48
2023/01/29 01:45:28;;;;;;;17.83;8.82;;;5.10;99.90;;;;;;5027041;28;20477;-42
2023/01/29 01:48:02;;;;;;;17.27;8.27;;;5.10;99.90;;;;;;5033500;28;20432;-44
2023/01/29 01:50:36;;;;;;;19.48;8.73;;;5.10;99.90;;;;;;5033350;28;20022;-42
2023/01/29 01:53:18;;;;;;;14.68;9.18;;;5.10;99.90;;;;;;5035831;28;20061;-43
2023/01/29 01:55:59;;;;;;;16.85;8.82;;;5.10;99.90;;;;;;5021801;28;20482;-41
2023/01/29 01:58:30;;;;;;;16.65;8.70;;;5.20;99.90;;;;;;5015988;28;20026;-54
2023/01/29 02:00:57;;;;;;;17.95;9.30;;;5.10;99.90;;;;;;5025474;28;20508;-42
2023/01/29 02:11:44;;;;;;;25.25;8.98;;;5.00;99.90;;;;;;5030207;28;20121;-38
2023/01/29 02:14:10;;;;;;;17.67;8.57;;;5.00;99.90;;;;;;5034146;28;20060;-37
2023/01/29 02:16:37;;;;;;;23.00;9.00;;;5.00;99.90;;;;;;5030497;28;20096;-39
2023/01/29 02:19:09;;;;;;;19.85;9.63;;;5.00;99.90;;;;;;5029303;28;20339;-38
2023/01/29 02:21:57;;;;;;;17.50;8.65;;;5.00;99.90;;;;;;5019370;28;20475;-40
2023/01/29 02:24:55;;;;;;;17.38;8.65;;;5.00;99.90;;;;;;5020406;28;20032;-40
2023/01/29 02:27:40;;;;;;;15.73;8.70;;;5.00;99.90;;;;;;5034474;28;20021;-39
2023/01/29 02:30:34;;;;;;;22.70;9.55;;;5.00;99.90;;;;;;5018808;28;20470;-39
2023/01/29 02:33:06;;;;;;;20.38;10.38;;;5.00;99.90;;;;;;5024670;28;20099;-39
2023/01/29 02:35:41;;;;;;;18.33;9.52;;;5.10;99.90;;;;;;5034121;28;20386;-39
2023/01/29 02:38:17;;;;;;;22.63;10.57;;;5.10;99.90;;;;;;5025467;28;20038;-42
2023/01/29 02:41:15;;;;;;;22.73;9.68;;;5.10;99.90;;;;;;5019444;28;20505;-41
2023/01/29 02:43:54;;;;;;;17.98;9.88;;;5.00;99.90;;;;;;5023678;28;20861;-42
2023/01/29 02:46:43;;;;;;;20.80;9.65;;;5.10;99.90;;;;;;5033864;28;20026;-38
2023/01/29 02:49:21;;;;;;;22.10;9.77;;;5.10;99.90;;;;;;5021182;28;20022;-40
2023/01/29 02:51:59;;;;;;;25.63;10.52;;;5.10;99.90;;;;;;5034867;28;20035;-39
2023/01/29 02:54:51;;;;;;;18.88;9.23;;;5.10;99.90;;;;;;5031381;28;20025;-38
2023/01/29 02:57:22;;;;;;;25.85;11.48;;;5.10;99.90;;;;;;5035231;28;20402;-35
2023/01/29 03:00:09;;;;;;;19.58;9.95;;;5.00;99.90;;;;;;5033021;28;20025;-40
2023/01/29 03:02:54;;;;;;;22.13;10.45;;;5.00;99.90;;;;;;5015192;28;20065;-36
2023/01/29 03:06:05;;;;;;;18.92;9.68;;;5.00;99.90;;;;;;5026203;28;20030;-37
2023/01/29 03:08:45;;;;;;;20.02;10.15;;;5.00;99.90;;;;;;5005917;28;20375;-39
2023/01/29 03:11:13;;;;;;;22.05;10.07;;;5.00;99.90;;;;;;5016854;28;20478;-40
2023/01/29 03:13:55;;;;;;;19.27;9.80;;;4.90;99.90;;;;;;5014398;28;20036;-39
2023/01/29 03:16:49;;;;;;;20.92;10.05;;;4.90;99.90;;;;;;5022025;28;20036;-37
2023/01/29 03:19:35;;;;;;;20.73;10.68;;;4.90;99.90;;;;;;5032023;28;20025;-39
2023/01/29 03:22:03;;;;;;;24.52;11.73;;;4.90;99.90;;;;;;5016422;28;20559;-39
2023/01/29 03:32:55;;;;;;;23.67;10.38;;;4.90;99.90;;;;;;5028612;28;20071;-44
2023/01/29 03:35:35;;;;;;;19.17;8.87;;;4.90;99.90;;;;;;5031297;28;20080;-43
2023/01/29 03:38:04;;;;;;;25.77;11.35;;;4.90;99.90;;;;;;5033922;28;20091;-42
2023/01/29 03:40:51;;;;;;;21.85;10.75;;;4.90;99.90;;;;;;5031210;28;20061;-44
2023/01/29 03:43:35;;;;;;;23.50;11.37;;;4.90;99.90;;;;;;5033814;28;20492;-42
2023/01/29 03:46:30;;;;;;;23.35;10.57;;;4.90;99.90;;;;;;5026637;28;20072;-45
2023/01/29 03:48:59;;;;;;;22.85;11.30;;;4.80;99.90;;;;;;5032019;28;20080;-42
2023/01/29 03:51:50;;;;;;;27.52;12.50;;;4.80;99.90;;;;;;5024668;28;20037;-44
2023/01/29 03:54:25;;;;;;;27.42;11.85;;;4.90;99.90;;;;;;5025553;28;20026;-44
2023/01/29 03:56:57;;;;;;;26.38;11.40;;;4.80;99.90;;;;;;5013896;28;20438;-44
2023/01/29 03:59:40;;;;;;;21.00;10.48;;;4.80;99.90;;;;;;5014384;28;20041;-42
2023/01/29 04:02:26;;;;;;;21.65;11.00;;;4.90;99.90;;;;;;5031634;28;20041;-43
2023/01/29 04:04:56;;;;;;;27.45;11.48;;;4.90;99.90;;;;;;5031006;28;20466;-40
2023/01/29 04:07:23;;;;;;;22.17;10.40;;;4.90;99.90;;;;;;5033425;28;20029;-34
2023/01/29 04:10:11;;;;;;;22.17;11.02;;;4.90;99.90;;;;;;5025391;28;20433;-38
2023/01/29 04:12:46;;;;;;;25.27;11.70;;;4.90;99.90;;;;;;5026435;28;20084;-41
2023/01/29 04:15:14;;;;;;;28.92;12.35;;;4.90;99.90;;;;;;5018780;28;20037;-41
2023/01/29 04:17:43;;;;;;;24.58;11.48;;;4.80;99.90;;;;;;5033523;28;20499;-42
2023/01/29 04:20:10;;;;;;;27.20;12.23;;;4.80;99.90;;;;;;5023258;28;20504;-43
2023/01/29 04:22:38;;;;;;;24.95;11.40;;;4.70;99.90;;;;;;5013421;28;20548;-42
2023/01/29 04:25:14;;;;;;;25.58;11.43;;;4.70;99.90;;;;;;5013931;28;20434;-42
2023/01/29 04:28:01;;;;;;;23.30;11.25;;;4.80;99.90;;;;;;5013689;28;20149;-42
2023/01/29 04:31:03;;;;;;;24.67;10.93;;;4.80;99.90;;;;;;5023996;28;20031;-42
2023/01/29 04:34:06;;;;;;;23.23;11.07;;;4.80;99.90;;;;;;5032948;28;20025;-42
2023/01/29 04:36:51;;;;;;;23.13;10.48;;;4.80;99.90;;;;;;5030419;28;20598;-42
2023/01/29 04:39:20;;;;;;;23.33;10.98;;;4.80;99.90;;;;;;5030864;28;20098;-40
2023/01/29 04:41:52;;;;;;;23.33;11.23;;;4.80;99.90;;;;;;5033036;28;20029;-40
2023/01/29 04:44:36;;;;;;;24.33;11.35;;;4.80;99.90;;;;;;5029976;28;20509;-44
2023/01/29 04:47:13;;;;;;;25.30;10.55;;;4.80;99.90;;;;;;5023326;28;20021;-47
2023/01/29 04:50:13;;;;;;;22.25;11.43;;;4.80;99.90;;;;;;5020575;28;20473;-45
2023/01/29 04:53:16;;;;;;;24.67;11.35;;;4.80;99.90;;;;;;5020580;28;20034;-41
2023/01/29 04:55:51;;;;;;;23.02;10.05;;;4.80;99.90;;;;;;5016905;28;20047;-37
2023/01/29 04:58:23;;;;;;;24.52;10.75;;;4.70;99.90;;;;;;5029243;28;20487;-40
2023/01/29 05:00:52;;;;;;;29.85;11.40;;;4.80;99.90;;;;;;5019840;28;20046;-36
2023/01/29 05:03:20;;;;;;;24.60;11.38;;;4.70;99.90;;;;;;5030135;28;20470;-39
2023/01/29 05:05:48;;;;;;;26.00;12.23;;;4.80;99.90;;;;;;5030335;28;20029;-39
2023/01/29 05:08:19;;;;;;;22.77;11.23;;;4.80;99.90;;;;;;5034600;28;20029;-39
2023/01/29 05:10:47;;;;;;;23.73;11.73;;;4.80;99.90;;;;;;5032544;28;20068;-39
2023/01/29 05:13:13;;;;;;;27.73;12.23;;;4.70;99.90;;;;;;5033487;28;20075;-33
2023/01/29 05:15:55;;;;;;;24.67;12.52;;;4.80;99.90;;;;;;5034992;28;20109;-42
2023/01/29 05:18:21;;;;;;;21.83;10.68;;;4.80;99.90;;;;;;5028540;28;20033;-43
2023/01/29 05:20:48;;;;;;;27.75;12.85;;;4.80;99.90;;;;;;5034310;28;20022;-44
2023/01/29 05:23:18;;;;;;;24.50;11.63;;;4.70;99.90;;;;;;5035802;28;20099;-47
2023/01/29 05:25:45;;;;;;;27.45;12.13;;;4.70;99.90;;;;;;5035376;28;20179;-42
2023/01/29 05:28:17;;;;;;;25.80;12.25;;;4.60;99.90;;;;;;5034093;28;20516;-43
2023/01/29 05:30:45;;;;;;;26.67;11.63;;;4.70;99.90;;;;;;5026781;28;20566;-44
2023/01/29 05:33:12;;;;;;;;;;;4.70;99.90;;;;;;5031132;28;20033;-44
2023/01/29 05:35:38;;;;;;;30.23;12.05;;;4.70;99.90;;;;;;5027396;28;19951;-43
2023/01/29 05:38:03;;;;;;;24.85;11.65;;;4.70;99.90;;;;;;5026280;28;20068;-43
2023/01/29 05:40:29;;;;;;;21.73;10.93;;;4.70;99.90;;;;;;5029667;28;20025;-41
2023/01/29 05:42:55;;;;;;;28.48;11.73;;;4.70;99.90;;;;;;5024937;28;20462;-44
2023/01/29 05:45:20;;;;;;;23.45;12.07;;;4.70;99.90;;;;;;5032105;28;20025;-40
2023/01/29 05:47:46;;;;;;;31.33;11.88;;;4.70;99.90;;;;;;5031907;28;20037;-38
2023/01/29 05:50:13;;;;;;;26.75;12.57;;;4.70;99.90;;;;;;5030939;28;20030;-35
2023/01/29 05:52:39;;;;;;;28.25;11.60;;;4.70;99.90;;;;;;5034070;28;20084;-32
2023/01/29 05:55:05;;;;;;;24.38;11.88;;;4.70;99.90;;;;;;5029363;28;20543;-37
2023/01/29 05:57:31;;;;;;;26.13;12.05;;;4.60;99.90;;;;;;5031822;28;20045;-39
2023/01/29 05:59:56;;;;;;;30.50;11.20;;;4.60;99.90;;;;;;5031870;28;20065;-39
2023/01/29 06:02:22;;;;;;;22.67;11.25;;;4.60;99.90;;;;;;5029603;28;20636;-40
2023/01/29 06:04:51;;;;;;;24.02;11.65;;;4.60;99.90;;;;;;5027605;28;20030;-38
2023/01/29 06:07:16;;;;;;;23.52;11.45;;;4.60;99.90;;;;;;5033838;28;20021;-37
2023/01/29 06:09:42;;;;;;;24.42;11.63;;;4.60;99.90;;;;;;5025629;28;20426;-41
2023/01/29 06:12:07;;;;;;;27.77;11.68;;;4.60;99.90;;;;;;5033392;28;20033;-40
2023/01/29 06:14:33;;;;;;;21.77;10.52;;;4.70;99.90;;;;;;5034968;28;20529;-38
2023/01/29 06:16:59;;;;;;;20.38;10.82;;;4.60;99.90;;;;;;5033134;28;20056;-38
2023/01/29 06:19:24;;;;;;;23.70;11.48;;;4.60;99.90;;;;;;5027331;28;20026;-40
2023/01/29 06:21:50;;;;;;;25.08;11.55;;;4.60;99.90;;;;;;5032461;28;20029;-40
2023/01/29 06:24:15;;;;;;;24.42;11.85;;;4.70;99.90;;;;;;5035211;28;20024;-34
2023/01/29 06:26:41;;;;;;;19.33;10.45;;;4.70;99.90;;;;;;5020532;28;20148;-43
2023/01/29 06:29:07;;;;;;;27.40;12.13;;;4.60;99.90;;;;;;5014218;28;20088;-42
2023/01/29 06:31:32;;;;;;;26.70;10.68;;;4.60;99.90;;;;;;5035264;28;20445;-41
2023/01/29 06:33:58;;;;;;;28.83;11.60;;;4.60;99.90;;;;;;5032070;28;20375;-41
2023/01/29 06:36:24;;;;;;;24.08;11.65;;;4.60;99.90;;;;;;5033678;28;20027;-41
2023/01/29 06:38:49;;;;;;;26.10;11.52;;;4.60;99.90;;;;;;5033423;28;20037;-45
2023/01/29 06:41:21;;;;;;;24.55;11.55;;;4.60;99.90;;;;;;5033620;28;20026;-41
2023/01/29 06:43:47;;;;;;;21.40;10.60;;;4.60;99.90;;;;;;5034925;28;20017;-42
2023/01/29 06:46:13;;;;;;;22.27;10.75;;;4.60;99.90;;;;;;5031913;28;20029;-43
2023/01/29 06:48:38;;;;;;;27.33;11.60;;;4.60;99.90;;;;;;5032819;28;20024;-41
2023/01/29 06:51:06;;;;;;;24.00;11.15;;;4.50;99.90;;;;;;5028998;28;20462;-45
2023/01/29 06:53:33;;;;;;;21.65;11.07;;;4.50;99.90;;;;;;5015102;28;20069;-45
2023/01/29 06:55:58;;;;;;;25.75;11.95;;;4.50;99.90;;;;;;5015843;28;20014;-39
2023/01/29 06:58:24;;;;;;;21.75;10.60;;;4.50;99.90;;;;;;5017492;28;20393;-41
2023/01/29 07:00:50;;;;;;;23.50;11.40;;;4.50;99.90;;;;;;5032672;28;20406;-39
2023/01/29 07:03:15;;;;;;;28.02;11.57;;;4.50;99.90;;;;;;5031311;28;20033;-41
2023/01/29 07:05:41;;;;;;;21.85;10.52;;;4.50;99.90;;;;;;5025524;28;20017;-40
2023/01/29 07:08:08;;;;;;;25.70;12.57;;;4.50;99.90;;;;;;5033106;28;20482;-36
2023/01/29 07:10:34;;;;;;;23.85;10.30;;;4.50;99.90;;;;;;5033704;28;20485;-36
2023/01/29 07:13:00;;;;;;;22.77;10.65;;;4.60;99.90;;;;;;5034626;28;20384;-38
2023/01/29 07:15:26;;;;;;;25.70;12.20;;;4.60;99.90;;;;;;5028277;28;20112;-39
2023/01/29 07:18:11;;;;;;;20.67;10.10;;;4.60;99.90;;;;;;5027093;28;20436;-38
2023/01/29 07:20:37;;;;;;;27.25;13.00;;;4.70;99.90;;;;;;5030910;28;20037;-41
2023/01/29 07:23:03;;;;;;;23.33;11.35;;;4.60;99.90;;;;;;5027181;28;20058;-40
2023/01/29 07:25:29;;;;;;;19.40;9.85;;;4.60;99.90;;;;;;5025979;28;20064;-38
2023/01/29 07:27:55;;;;;;;23.35;10.52;;;4.60;99.90;;;;;;5032187;28;20517;-38
2023/01/29 07:30:21;;;;;;;19.60;10.13;;;4.60;99.90;;;;;;5033202;28;20043;-35
2023/01/29 07:32:46;;;;;;;20.77;10.15;;;4.70;99.90;;;;;;5027360;28;20478;-41
2023/01/29 07:35:12;;;;;;;21.80;10.70;;;4.70;99.90;;;;;;5014095;28;20398;-32
2023/01/29 07:37:38;;;;;;;22.35;11.27;;;4.70;99.90;;;;;;5014224;28;20091;-37
2023/01/29 07:40:10;;;;;;;19.13;9.98;;;4.70;99.90;;;;;;5020564;28;20026;-41
2023/01/29 07:42:36;;;;;;;19.98;10.23;;;4.70;99.90;;;;;;5032622;28;20359;-39
2023/01/29 07:45:02;;;;;;;19.00;10.30;;;4.60;99.90;;;;;;5026046;28;20537;-38
2023/01/29 07:47:27;;;;;;;24.00;10.90;;;4.70;99.90;;;;;;5032027;28;20109;-40
2023/01/29 07:49:53;;;;;;;24.13;9.93;;;4.70;99.90;;;;;;5020459;28;20061;-39
2023/01/29 07:52:18;;;;;;;22.20;11.20;;;4.70;99.90;;;;;;5031766;28;20064;-38
2023/01/29 07:54:47;;;;;;;23.10;11.45;;;4.70;99.90;;;;;;5033677;28;20121;-43
2023/01/29 07:57:13;;;;;;;28.52;10.98;;;4.70;99.90;;;;;;5032906;28;20555;-46
2023/01/29 07:59:38;;;;;;;24.67;10.43;;;4.70;99.90;;;;;;5033122;28;20052;-40
2023/01/29 08:02:04;;;;;;;16.25;9.27;;;4.70;99.90;;;;;;5019995;28;20046;-40
2023/01/29 08:04:29;;;;;;;20.45;10.18;;;4.70;99.90;;;;;;5025836;28;20430;-41
2023/01/29 08:06:55;;;;;;;24.65;10.93;;;4.70;99.90;;;;;;5033280;28;20029;-36
2023/01/29 08:09:20;;;;;;;22.58;10.68;;;4.70;99.90;;;;;;5033339;28;20508;-39
2023/01/29 08:11:46;;;;;;;17.92;9.57;;;4.80;99.90;;;;;;5030274;28;20053;-42
2023/01/29 08:14:30;;;;;;;21.67;9.80;;;4.80;99.90;;;;;;5032118;28;20441;-37
2023/01/29 08:16:56;;;;;;;18.30;10.07;;;4.70;99.90;;;;;;5033590;28;20417;-35
2023/01/29 08:19:22;;;;;;;27.52;11.15;;;4.70;99.90;;;;;;5031378;28;20033;-38
2023/01/29 08:21:47;;;;;;;25.20;11.20;;;4.70;99.90;;;;;;5029815;28;20037;-38
2023/01/29 08:24:13;;;;;;;24.20;10.60;;;4.80;99.90;;;;;;5032213;28;20528;-41
2023/01/29 08:26:38;;;;;;;22.98;10.23;;;4.80;99.90;;;;;;5031574;28;20022;-41
2023/01/29 08:29:04;;;;;;;20.15;9.40;;;4.80;99.90;;;;;;5019762;28;20516;-35
2023/01/29 08:31:29;;;;;;;22.27;10.68;;;4.80;99.90;;;;;;5024103;28;20100;-39
2023/01/29 08:33:55;;;;;;;19.10;9.98;;;4.80;99.90;;;;;;5025365;28;20052;-43
2023/01/29 08:36:21;;;;;;;18.25;10.10;;;4.80;99.90;;;;;;5027356;28;20030;-43
2023/01/29 08:38:47;;;;;;;19.48;9.43;;;4.80;99.90;;;;;;5025392;28;20513;-41
2023/01/29 08:41:12;;;;;;;21.15;10.57;;;4.80;99.90;;;;;;5023904;28;20056;-50
2023/01/29 08:43:39;;;;;;;17.27;9.32;;;4.80;99.90;;;;;;5032896;28;20371;-44
2023/01/29 08:46:06;;;;;;;19.65;10.20;;;4.90;99.90;;;;;;5024113;28;20030;-44
2023/01/29 08:48:32;;;;;;;19.33;9.43;;;4.90;99.90;;;;;;5019041;28;20037;-40
2023/01/29 08:51:00;;;;;;;24.50;11.50;;;4.90;99.90;;;;;;5020545;28;20040;-43
2023/01/29 08:53:26;;;;;;;23.33;10.90;;;4.90;99.90;;;;;;5022185;28;20021;-42
2023/01/29 08:55:52;;;;;;;20.42;9.73;;;4.90;99.90;;;;;;5029618;28;20029;-42
2023/01/29 08:58:18;;;;;;;20.13;9.85;;;4.90;99.90;;;;;;5029147;28;20164;-39
2023/01/29 09:00:44;;;;;;;19.38;9.57;;;4.90;99.90;;;;;;5012930;28;20048;-42
2023/01/29 09:03:09;;;;;;;23.35;11.38;;;4.90;99.90;;;;;;5011767;28;20525;-40
2023/01/29 09:05:36;;;;;;;17.00;8.98;;;4.90;99.90;;;;;;5024859;28;20040;-40
2023/01/29 09:08:03;;;;;;;24.00;9.88;;;5.00;99.90;;;;;;5028136;28;20040;-40
2023/01/29 09:10:28;;;;;;;18.20;9.88;;;5.00;99.90;;;;;;5012936;28;20037;-39
2023/01/29 09:12:54;;;;;;;19.92;9.82;;;5.00;99.90;;;;;;5017047;28;20025;-42
2023/01/29 09:15:19;;;;;;;23.33;9.55;;;5.00;99.90;;;;;;5019109;28;20120;-38
2023/01/29 09:17:45;;;;;;;23.40;9.95;;;5.10;99.90;;;;;;5024241;28;20424;-40
2023/01/29 09:20:11;;;;;;;25.02;10.75;;;5.10;99.90;;;;;;5019714;28;20029;-42
2023/01/29 09:22:37;;;;;;;22.42;11.10;;;5.10;99.90;;;;;;5025015;28;20116;-40
2023/01/29 09:25:03;;;;;;;20.92;9.55;;;5.20;99.90;;;;;;5013016;28;20025;-39
2023/01/29 09:27:28;;;;;;;19.10;9.85;;;5.30;99.90;;;;;;5019118;28;20029;-38
2023/01/29 09:29:54;;;;;;;23.02;10.45;;;5.30;99.90;;;;;;5021193;28;20104;-39
2023/01/29 09:32:20;;;;;;;23.13;9.90;;;5.30;99.90;;;;;;5018968;28;20488;-39
2023/01/29 09:34:45;;;;;;;18.52;9.32;;;5.30;99.90;;;;;;5032414;28;20108;-39
2023/01/29 09:37:11;;;;;;;21.23;10.23;;;5.30;99.90;;;;;;5027852;28;20086;-42
2023/01/29 09:39:36;;;;;;;21.20;9.65;;;5.20;99.90;;;;;;5023134;28;20401;-39
2023/01/29 09:42:21;;;;;;;21.38;9.80;;;5.30;99.90;;;;;;5016699;28;20033;-35
2023/01/29 09:45:26;;;;;;;21.35;10.77;;;5.30;99.90;;;;;;5013021;28;20470;-36
2023/01/29 09:47:55;;;;;;;21.10;9.57;;;5.30;99.90;;;;;;4995591;28;20057;-43
2023/01/29 09:50:28;;;;;;;25.92;8.77;;;5.30;99.90;;;;;;5004144;28;20048;-41
2023/01/29 09:53:38;;;;;;;20.50;10.88;;;5.30;99.90;;;;;;5010822;28;20049;-40
2023/01/29 09:56:05;;;;;;;20.73;9.90;;;5.40;99.90;;;;;;5004306;28;20125;-42
2023/01/29 09:58:39;;;;;;;18.67;10.07;;;5.40;99.90;;;;;;5012051;28;20508;-35
2023/01/29 10:01:16;;;;;;;20.15;10.25;;;5.40;99.90;;;;;;5010768;28;20041;-38
2023/01/29 10:04:06;;;;;;;20.27;10.43;;;5.50;99.90;;;;;;5010582;28;20030;-37
2023/01/29 10:06:59;;;;;;;22.40;10.20;;;5.50;99.90;;;;;;5011798;28;20117;-40
2023/01/29 10:09:43;;;;;;;23.90;11.25;;;5.50;99.90;;;;;;5013753;28;20071;-41
2023/01/29 10:12:21;;;;;;;24.90;9.75;;;5.50;99.90;;;;;;5022378;28;20100;-39
2023/01/29 10:15:17;;;;;;;23.63;10.18;;;5.50;99.90;;;;;;5013550;28;20119;-38
2023/01/29 10:17:46;;;;;;;22.70;9.90;;;5.50;99.90;;;;;;5013650;28;20395;-39
2023/01/29 10:20:46;;;;;;;19.83;9.55;;;5.50;99.90;;;;;;5022190;28;20117;-40
2023/01/29 10:23:33;;;;;;;21.27;10.57;;;5.60;99.90;;;;;;5033282;28;20038;-37
2023/01/29 10:25:59;;;;;;;19.33;10.70;;;5.60;99.90;;;;;;5032526;28;20037;-35
2023/01/29 10:28:56;;;;;;;21.23;10.52;;;5.60;99.90;;;;;;5028410;28;20478;-41
2023/01/29 10:31:37;;;;;;;21.75;11.32;;;5.70;99.90;;;;;;5029430;28;20391;-37
2023/01/29 10:34:23;;;;;;;20.63;10.60;;;5.70;99.90;;;;;;5019399;28;20063;-39
2023/01/29 10:36:49;;;;;;;24.52;11.35;;;5.70;99.90;;;;;;5027107;28;20029;-33
2023/01/29 10:39:23;;;;;;;25.38;11.23;;;5.70;99.90;;;;;;5032621;28;20044;-35
2023/01/29 10:42:04;;;;;;;20.38;10.85;;;5.70;99.90;;;;;;5035099;28;20036;-39
2023/01/29 10:44:42;;;;;;;26.30;12.07;;;5.70;99.90;;;;;;5033498;28;20029;-39
2023/01/29 10:47:35;;;;;;;26.98;11.35;;;5.60;99.90;;;;;;5033070;28;20036;-42
2023/01/29 10:50:32;;;;;;;23.80;10.93;;;5.60;99.90;;;;;;5022987;28;20385;-37
2023/01/29 10:53:19;;;;;;;27.58;12.73;;;5.60;99.90;;;;;;5035041;28;20398;-38
2023/01/29 10:56:18;;;;;;;25.75;12.60;;;5.60;99.90;;;;;;5032083;28;20033;-36
2023/01/29 10:58:53;;;;;;;24.90;12.55;;;5.50;99.90;;;;;;5033662;28;20036;-38
2023/01/29 11:01:19;;;;;;;35.30;12.65;;;5.50;99.90;;;;;;5021677;28;20176;-36
2023/01/29 11:03:45;;;;;;;30.48;11.98;;;5.60;99.90;;;;;;5030508;28;20033;-36
2023/01/29 11:06:24;;;;;;;26.67;12.38;;;5.50;99.90;;;;;;5033797;28;20087;-38
2023/01/29 11:09:08;;;;;;;27.65;12.13;;;5.60;99.90;;;;;;5025899;28;20300;-36
2023/01/29 11:11:55;;;;;;;28.58;12.40;;;5.60;99.90;;;;;;5029381;28;20022;-38
2023/01/29 11:14:23;;;;;;;25.23;11.90;;;5.60;99.90;;;;;;5021423;28;20124;-39
2023/01/29 11:16:49;;;;;;;28.08;11.82;;;5.70;99.90;;;;;;5026298;28;20486;-41
2023/01/29 11:19:15;;;;;;;23.70;12.07;;;5.60;99.90;;;;;;5029314;28;20036;-39
2023/01/29 11:21:58;;;;;;;23.38;11.63;;;5.60;99.90;;;;;;5023088;28;20029;-39
2023/01/29 11:24:25;;;;;;;25.05;11.63;;;5.60;99.90;;;;;;5024206;28;20105;-39
2023/01/29 11:26:56;;;;;;;25.23;12.35;;;5.60;99.90;;;;;;5029357;28;20115;-37
2023/01/29 11:29:52;;;;;;;25.02;12.70;;;5.60;99.90;;;;;;5023200;28;20177;-40
2023/01/29 11:32:18;;;;;;;28.02;13.35;;;5.60;99.90;;;;;;5029264;28;20044;-41
2023/01/29 11:35:00;;;;;;;23.48;11.95;;;5.60;99.90;;;;;;5022479;28;20121;-37
2023/01/29 11:37:40;;;;;;;28.00;11.55;;;5.70;99.90;;;;;;5022593;28;20030;-42
2023/01/29 11:40:34;;;;;;;28.52;12.90;;;5.60;99.90;;;;;;5027934;28;20484;-36
2023/01/29 11:43:26;;;;;;;25.83;12.07;;;5.60;99.90;;;;;;5038258;28;20541;-39
2023/01/29 11:45:59;;;;;;;27.80;12.55;;;5.60;99.90;;;;;;5013196;28;20046;-36
2023/01/29 11:48:32;;;;;;;24.65;11.77;;;5.60;99.90;;;;;;5024262;28;20478;-35
2023/01/29 11:50:59;;;;;;;23.33;11.88;;;5.70;99.90;;;;;;5031383;28;20061;-36
2023/01/29 11:53:36;;;;;;;27.80;13.35;;;5.60;99.90;;;;;;5029724;28;20061;-42
2023/01/29 11:56:20;;;;;;;29.60;13.40;;;5.70;99.90;;;;;;5029736;28;20034;-39
2023/01/29 11:58:48;;;;;;;24.58;12.90;;;5.60;99.90;;;;;;5030504;28;20486;-36
2023/01/29 12:01:16;;;;;;;30.35;13.43;;;5.60;99.90;;;;;;5026806;28;20128;-41
2023/01/29 12:03:48;;;;;;;27.17;13.00;;;5.60;99.90;;;;;;5026596;28;20096;-37
2023/01/29 12:06:26;;;;;;;29.65;12.95;;;5.70;99.90;;;;;;5017223;28;20053;-39
2023/01/29 12:08:56;;;;;;;30.00;13.95;;;5.60;99.90;;;;;;5024439;28;20033;-37
2023/01/29 12:11:28;;;;;;;30.02;13.43;;;5.70;99.90;;;;;;5028855;28;20506;-36
2023/01/29 12:14:00;;;;;;;24.67;12.63;;;5.70;99.90;;;;;;5024672;28;20022;-39
2023/01/29 12:16:50;;;;;;;32.20;13.23;;;5.70;99.90;;;;;;5026796;28;20045;-37
2023/01/29 12:19:54;;;;;;;27.98;14.02;;;5.70;99.90;;;;;;5026364;28;20466;-38
2023/01/29 12:22:41;;;;;;;27.40;13.05;;;5.70;99.90;;;;;;5022364;28;20072;-38
2023/01/29 12:25:20;;;;;;;26.63;13.10;;;5.80;99.90;;;;;;5015467;28;20029;-38
2023/01/29 12:27:48;;;;;;;31.10;13.77;;;5.90;99.90;;;;;;5030164;28;20022;-38
2023/01/29 12:30:21;;;;;;;28.45;14.15;;;5.90;99.90;;;;;;5025865;28;20476;-38
2023/01/29 12:33:02;;;;;;;31.25;13.35;;;5.90;99.90;;;;;;5030614;28;20101;-39
2023/01/29 12:35:34;;;;;;;30.40;13.65;;;5.90;99.90;;;;;;5025782;28;20029;-37
2023/01/29 12:38:07;;;;;;;24.00;12.68;;;6.00;99.90;;;;;;5015066;28;20553;-37
2023/01/29 12:40:44;;;;;;;24.23;12.52;;;6.00;99.90;;;;;;5024955;28;20545;-36
2023/01/29 12:43:18;;;;;;;27.92;13.52;;;5.90;99.90;;;;;;5019513;28;20394;-39
2023/01/29 12:45:51;;;;;;;28.48;13.65;;;5.90;99.90;;;;;;5031854;28;20036;-35
2023/01/29 12:48:44;;;;;;;27.80;13.00;;;5.90;99.90;;;;;;5032214;28;20478;-37
2023/01/29 12:51:20;;;;;;;30.42;13.57;;;5.80;99.90;;;;;;5025135;28;20065;-37
2023/01/29 12:53:53;;;;;;;27.15;12.40;;;5.80;99.90;;;;;;5025473;28;20036;-41
2023/01/29 12:56:45;;;;;;;32.22;12.98;;;5.80;99.90;;;;;;5013111;28;20076;-38
2023/01/29 12:59:24;;;;;;;27.00;13.60;;;5.90;99.90;;;;;;5025423;28;20030;-36
2023/01/29 13:02:10;;;;;;;28.05;13.77;;;5.90;99.90;;;;;;5026282;28;20034;-39
2023/01/29 13:04:44;;;;;;;30.58;13.23;;;6.00;99.90;;;;;;5027135;28;20029;-36
2023/01/29 13:07:26;;;;;;;28.70;13.77;;;6.20;99.90;;;;;;5020384;28;20056;-39
2023/01/29 13:10:00;;;;;;;26.33;13.10;;;6.20;99.90;;;;;;5011462;28;20024;-38
2023/01/29 13:12:26;;;;;;;30.08;13.10;;;6.30;99.90;;;;;;5020853;28;20048;-38
2023/01/29 13:15:04;;;;;;;26.48;13.95;;;6.30;99.90;;;;;;5015982;28;20049;-37
2023/01/29 13:17:43;;;;;;;28.80;13.35;;;6.40;99.90;;;;;;5023887;28;20482;-41
2023/01/29 13:20:50;;;;;;;29.00;13.27;;;6.50;99.90;;;;;;5029270;28;20025;-38
2023/01/29 13:23:24;;;;;;;28.42;12.55;;;6.50;99.90;;;;;;5021144;28;20514;-36
2023/01/29 13:25:53;;;;;;;26.92;13.73;;;6.40;99.90;;;;;;5012494;28;20061;-39
2023/01/29 13:28:23;;;;;;;27.60;13.80;;;6.40;99.90;;;;;;5015181;28;20394;-35
2023/01/29 13:31:13;;;;;;;27.10;13.10;;;6.40;99.90;;;;;;5024770;28;20029;-39
2023/01/29 13:33:42;;;;;;;28.90;13.68;;;6.50;99.90;;;;;;5034784;28;20564;-39